sensor_id;sensor_type;location;lat;lon;timestamp;P1;durP1;ratioP1;P2;durP2;ratioP2
9801;SDS011;4940;50.900;4.672;2022-08-21T00:01:16;3.50;;;2.60;;
9801;SDS011;4940;50.900;4.672;2022-08-21T00:03:45;2.97;;;2.28;;
9801;SDS011;4940;50.900;4.672;2022-08-21T00:06:13;2.63;;;2.10;;
9801;SDS011;4940;50.900;4.672;2022-08-21T00:08:40;4.55;;;2.33;;
9801;SDS011;4940;50.900;4.672;2022-08-21T00:11:09;4.35;;;2.40;;
9801;SDS011;4940;50.900;4.672;2022-08-21T00:13:37;4.03;;;2.50;;
9801;SDS011;4940;50.900;4.672;2022-08-21T00:16:04;2.63;;;2.25;;
9801;SDS011;4940;50.900;4.672;2022-08-21T00:18:32;3.97;;;2.50;;
9801;SDS011;4940;50.900;4.672;2022-08-21T00:20:59;4.75;;;2.35;;
9801;SDS011;4940;50.900;4.672;2022-08-21T00:23:27;5.50;;;2.50;;
9801;SDS011;4940;50.900;4.672;2022-08-21T00:25:55;4.82;;;2.38;;
9801;SDS011;4940;50.900;4.672;2022-08-21T00:28:24;7.35;;;2.45;;
9801;SDS011;4940;50.900;4.672;2022-08-21T00:30:54;3.22;;;2.28;;
9801;SDS011;4940;50.900;4.672;2022-08-21T00:33:22;4.07;;;2.45;;
9801;SDS011;4940;50.900;4.672;2022-08-21T00:35:50;8.43;;;2.65;;
9801;SDS011;4940;50.900;4.672;2022-08-21T00:38:19;8.05;;;2.67;;
9801;SDS011;4940;50.900;4.672;2022-08-21T00:40:48;5.70;;;2.78;;
9801;SDS011;4940;50.900;4.672;2022-08-21T00:43:18;5.03;;;2.30;;
9801;SDS011;4940;50.900;4.672;2022-08-21T00:45:49;3.83;;;2.22;;
9801;SDS011;4940;50.900;4.672;2022-08-21T00:48:18;3.28;;;2.10;;
9801;SDS011;4940;50.900;4.672;2022-08-21T00:50:46;4.93;;;2.10;;
9801;SDS011;4940;50.900;4.672;2022-08-21T00:53:18;4.53;;;2.58;;
9801;SDS011;4940;50.900;4.672;2022-08-21T00:55:45;2.85;;;1.92;;
9801;SDS011;4940;50.900;4.672;2022-08-21T00:58:13;5.55;;;2.58;;
9801;SDS011;4940;50.900;4.672;2022-08-21T01:00:44;3.95;;;2.35;;
9801;SDS011;4940;50.900;4.672;2022-08-21T01:03:18;3.55;;;2.60;;
9801;SDS011;4940;50.900;4.672;2022-08-21T01:05:48;3.80;;;2.50;;
9801;SDS011;4940;50.900;4.672;2022-08-21T01:08:16;5.18;;;2.22;;
9801;SDS011;4940;50.900;4.672;2022-08-21T01:10:44;3.65;;;2.25;;
9801;SDS011;4940;50.900;4.672;2022-08-21T01:13:13;6.72;;;2.47;;
9801;SDS011;4940;50.900;4.672;2022-08-21T01:15:43;5.95;;;2.60;;
9801;SDS011;4940;50.900;4.672;2022-08-21T01:18:14;9.43;;;2.30;;
9801;SDS011;4940;50.900;4.672;2022-08-21T01:20:44;8.40;;;2.50;;
9801;SDS011;4940;50.900;4.672;2022-08-21T01:23:28;5.03;;;2.45;;
9801;SDS011;4940;50.900;4.672;2022-08-21T01:25:55;4.72;;;2.50;;
9801;SDS011;4940;50.900;4.672;2022-08-21T01:28:23;4.32;;;2.20;;
9801;SDS011;4940;50.900;4.672;2022-08-21T01:30:51;6.93;;;2.67;;
9801;SDS011;4940;50.900;4.672;2022-08-21T01:33:19;4.32;;;2.35;;
9801;SDS011;4940;50.900;4.672;2022-08-21T01:35:50;5.85;;;2.38;;
9801;SDS011;4940;50.900;4.672;2022-08-21T01:38:19;4.90;;;2.42;;
9801;SDS011;4940;50.900;4.672;2022-08-21T01:40:46;4.00;;;2.50;;
9801;SDS011;4940;50.900;4.672;2022-08-21T01:43:14;5.45;;;2.47;;
9801;SDS011;4940;50.900;4.672;2022-08-21T01:45:41;4.95;;;2.10;;
9801;SDS011;4940;50.900;4.672;2022-08-21T01:48:08;7.40;;;2.42;;
9801;SDS011;4940;50.900;4.672;2022-08-21T01:50:36;6.55;;;2.63;;
9801;SDS011;4940;50.900;4.672;2022-08-21T01:53:04;4.07;;;2.70;;
9801;SDS011;4940;50.900;4.672;2022-08-21T01:55:32;7.20;;;2.70;;
9801;SDS011;4940;50.900;4.672;2022-08-21T01:58:00;5.63;;;2.53;;
9801;SDS011;4940;50.900;4.672;2022-08-21T02:00:27;4.30;;;2.58;;
9801;SDS011;4940;50.900;4.672;2022-08-21T02:02:55;6.05;;;2.85;;
9801;SDS011;4940;50.900;4.672;2022-08-21T02:05:22;6.18;;;2.38;;
9801;SDS011;4940;50.900;4.672;2022-08-21T02:07:50;3.75;;;2.40;;
9801;SDS011;4940;50.900;4.672;2022-08-21T02:10:21;7.07;;;2.60;;
9801;SDS011;4940;50.900;4.672;2022-08-21T02:12:50;4.35;;;2.42;;
9801;SDS011;4940;50.900;4.672;2022-08-21T02:15:17;7.10;;;2.63;;
9801;SDS011;4940;50.900;4.672;2022-08-21T02:17:46;4.03;;;2.58;;
9801;SDS011;4940;50.900;4.672;2022-08-21T02:20:17;4.57;;;2.47;;
9801;SDS011;4940;50.900;4.672;2022-08-21T02:22:46;6.13;;;2.50;;
9801;SDS011;4940;50.900;4.672;2022-08-21T02:25:15;6.00;;;2.58;;
9801;SDS011;4940;50.900;4.672;2022-08-21T02:27:43;6.43;;;2.50;;
9801;SDS011;4940;50.900;4.672;2022-08-21T02:30:14;8.10;;;2.72;;
9801;SDS011;4940;50.900;4.672;2022-08-21T02:32:42;6.47;;;2.88;;
9801;SDS011;4940;50.900;4.672;2022-08-21T02:35:10;7.80;;;2.75;;
9801;SDS011;4940;50.900;4.672;2022-08-21T02:37:45;5.43;;;2.67;;
9801;SDS011;4940;50.900;4.672;2022-08-21T02:40:13;6.63;;;3.05;;
9801;SDS011;4940;50.900;4.672;2022-08-21T02:42:41;5.85;;;2.47;;
9801;SDS011;4940;50.900;4.672;2022-08-21T02:45:09;5.22;;;2.75;;
9801;SDS011;4940;50.900;4.672;2022-08-21T02:47:38;5.72;;;2.63;;
9801;SDS011;4940;50.900;4.672;2022-08-21T02:50:06;5.13;;;2.53;;
9801;SDS011;4940;50.900;4.672;2022-08-21T02:52:34;5.68;;;2.80;;
9801;SDS011;4940;50.900;4.672;2022-08-21T02:55:02;5.95;;;2.42;;
9801;SDS011;4940;50.900;4.672;2022-08-21T02:57:30;4.97;;;2.80;;
9801;SDS011;4940;50.900;4.672;2022-08-21T02:59:57;4.45;;;2.45;;
9801;SDS011;4940;50.900;4.672;2022-08-21T03:02:25;5.85;;;2.85;;
9801;SDS011;4940;50.900;4.672;2022-08-21T03:04:53;8.35;;;2.63;;
9801;SDS011;4940;50.900;4.672;2022-08-21T03:07:21;6.07;;;2.83;;
9801;SDS011;4940;50.900;4.672;2022-08-21T03:09:48;6.53;;;3.15;;
9801;SDS011;4940;50.900;4.672;2022-08-21T03:12:16;6.72;;;2.72;;
9801;SDS011;4940;50.900;4.672;2022-08-21T03:14:43;3.97;;;2.40;;
9801;SDS011;4940;50.900;4.672;2022-08-21T03:17:10;5.05;;;2.80;;
9801;SDS011;4940;50.900;4.672;2022-08-21T03:19:38;6.40;;;2.40;;
9801;SDS011;4940;50.900;4.672;2022-08-21T03:22:07;5.13;;;2.33;;
9801;SDS011;4940;50.900;4.672;2022-08-21T03:24:34;3.53;;;1.88;;
9801;SDS011;4940;50.900;4.672;2022-08-21T03:27:01;3.28;;;1.90;;
9801;SDS011;4940;50.900;4.672;2022-08-21T03:29:29;2.33;;;1.90;;
9801;SDS011;4940;50.900;4.672;2022-08-21T03:31:56;5.20;;;2.15;;
9801;SDS011;4940;50.900;4.672;2022-08-21T03:34:23;4.28;;;1.67;;
9801;SDS011;4940;50.900;4.672;2022-08-21T03:36:51;3.28;;;1.88;;
9801;SDS011;4940;50.900;4.672;2022-08-21T03:39:19;3.00;;;1.85;;
9801;SDS011;4940;50.900;4.672;2022-08-21T03:41:47;5.88;;;2.22;;
9801;SDS011;4940;50.900;4.672;2022-08-21T03:44:14;3.42;;;1.70;;
9801;SDS011;4940;50.900;4.672;2022-08-21T03:46:41;4.30;;;1.50;;
9801;SDS011;4940;50.900;4.672;2022-08-21T03:49:09;8.73;;;1.88;;
9801;SDS011;4940;50.900;4.672;2022-08-21T03:51:37;4.95;;;1.80;;
9801;SDS011;4940;50.900;4.672;2022-08-21T03:54:04;4.88;;;1.42;;
9801;SDS011;4940;50.900;4.672;2022-08-21T03:56:33;4.75;;;1.90;;
9801;SDS011;4940;50.900;4.672;2022-08-21T03:59:01;5.00;;;1.63;;
9801;SDS011;4940;50.900;4.672;2022-08-21T04:01:28;2.72;;;1.70;;
9801;SDS011;4940;50.900;4.672;2022-08-21T04:03:56;4.18;;;1.95;;
9801;SDS011;4940;50.900;4.672;2022-08-21T04:06:23;9.40;;;2.20;;
9801;SDS011;4940;50.900;4.672;2022-08-21T04:08:51;2.88;;;1.88;;
9801;SDS011;4940;50.900;4.672;2022-08-21T04:11:18;6.07;;;1.88;;
9801;SDS011;4940;50.900;4.672;2022-08-21T04:13:47;8.85;;;1.88;;
9801;SDS011;4940;50.900;4.672;2022-08-21T04:16:15;2.75;;;1.88;;
9801;SDS011;4940;50.900;4.672;2022-08-21T04:18:42;6.95;;;1.88;;
9801;SDS011;4940;50.900;4.672;2022-08-21T04:21:10;3.78;;;1.45;;
9801;SDS011;4940;50.900;4.672;2022-08-21T04:23:38;7.45;;;2.08;;
9801;SDS011;4940;50.900;4.672;2022-08-21T04:26:05;4.57;;;2.00;;
9801;SDS011;4940;50.900;4.672;2022-08-21T04:28:32;4.93;;;1.55;;
9801;SDS011;4940;50.900;4.672;2022-08-21T04:31:01;4.45;;;1.80;;
9801;SDS011;4940;50.900;4.672;2022-08-21T04:33:28;5.15;;;2.38;;
9801;SDS011;4940;50.900;4.672;2022-08-21T04:35:55;6.43;;;2.65;;
9801;SDS011;4940;50.900;4.672;2022-08-21T04:38:23;5.72;;;1.90;;
9801;SDS011;4940;50.900;4.672;2022-08-21T04:40:51;4.15;;;2.38;;
9801;SDS011;4940;50.900;4.672;2022-08-21T04:43:19;8.90;;;2.38;;
9801;SDS011;4940;50.900;4.672;2022-08-21T04:45:48;5.03;;;2.10;;
9801;SDS011;4940;50.900;4.672;2022-08-21T04:48:18;7.55;;;2.20;;
9801;SDS011;4940;50.900;4.672;2022-08-21T04:50:48;4.25;;;2.15;;
9801;SDS011;4940;50.900;4.672;2022-08-21T04:53:20;4.13;;;2.28;;
9801;SDS011;4940;50.900;4.672;2022-08-21T04:55:50;3.47;;;2.20;;
9801;SDS011;4940;50.900;4.672;2022-08-21T04:58:20;5.43;;;2.40;;
9801;SDS011;4940;50.900;4.672;2022-08-21T05:00:51;3.70;;;2.45;;
9801;SDS011;4940;50.900;4.672;2022-08-21T05:03:21;4.78;;;2.30;;
9801;SDS011;4940;50.900;4.672;2022-08-21T05:05:49;3.45;;;1.90;;
9801;SDS011;4940;50.900;4.672;2022-08-21T05:08:17;4.03;;;2.08;;
9801;SDS011;4940;50.900;4.672;2022-08-21T05:10:48;8.93;;;2.42;;
9801;SDS011;4940;50.900;4.672;2022-08-21T05:13:16;3.53;;;1.90;;
9801;SDS011;4940;50.900;4.672;2022-08-21T05:15:44;4.30;;;2.60;;
9801;SDS011;4940;50.900;4.672;2022-08-21T05:18:11;4.85;;;2.10;;
9801;SDS011;4940;50.900;4.672;2022-08-21T05:20:39;4.90;;;2.05;;
9801;SDS011;4940;50.900;4.672;2022-08-21T05:23:07;7.28;;;2.50;;
9801;SDS011;4940;50.900;4.672;2022-08-21T05:25:36;5.63;;;2.40;;
9801;SDS011;4940;50.900;4.672;2022-08-21T05:28:03;5.47;;;2.47;;
9801;SDS011;4940;50.900;4.672;2022-08-21T05:30:31;7.03;;;2.22;;
9801;SDS011;4940;50.900;4.672;2022-08-21T05:32:59;3.55;;;2.15;;
9801;SDS011;4940;50.900;4.672;2022-08-21T05:35:28;3.97;;;2.15;;
9801;SDS011;4940;50.900;4.672;2022-08-21T05:37:57;5.18;;;2.10;;
9801;SDS011;4940;50.900;4.672;2022-08-21T05:40:25;3.45;;;2.20;;
9801;SDS011;4940;50.900;4.672;2022-08-21T05:42:52;4.00;;;1.95;;
9801;SDS011;4940;50.900;4.672;2022-08-21T05:45:21;3.65;;;2.10;;
9801;SDS011;4940;50.900;4.672;2022-08-21T05:47:49;4.00;;;2.42;;
9801;SDS011;4940;50.900;4.672;2022-08-21T05:50:16;6.97;;;2.60;;
9801;SDS011;4940;50.900;4.672;2022-08-21T05:52:44;6.43;;;1.98;;
9801;SDS011;4940;50.900;4.672;2022-08-21T05:55:13;3.60;;;1.95;;
9801;SDS011;4940;50.900;4.672;2022-08-21T05:57:40;7.78;;;2.35;;
9801;SDS011;4940;50.900;4.672;2022-08-21T06:00:08;4.65;;;1.90;;
9801;SDS011;4940;50.900;4.672;2022-08-21T06:02:37;8.18;;;2.22;;
9801;SDS011;4940;50.900;4.672;2022-08-21T06:05:05;4.82;;;1.92;;
9801;SDS011;4940;50.900;4.672;2022-08-21T06:07:32;5.60;;;2.42;;
9801;SDS011;4940;50.900;4.672;2022-08-21T06:10:00;4.80;;;1.88;;
9801;SDS011;4940;50.900;4.672;2022-08-21T06:12:28;4.57;;;1.92;;
9801;SDS011;4940;50.900;4.672;2022-08-21T06:14:56;5.32;;;1.95;;
9801;SDS011;4940;50.900;4.672;2022-08-21T06:17:23;4.93;;;1.70;;
9801;SDS011;4940;50.900;4.672;2022-08-21T06:19:51;3.25;;;1.83;;
9801;SDS011;4940;50.900;4.672;2022-08-21T06:22:19;4.93;;;1.75;;
9801;SDS011;4940;50.900;4.672;2022-08-21T06:24:47;3.60;;;1.73;;
9801;SDS011;4940;50.900;4.672;2022-08-21T06:27:14;3.50;;;1.67;;
9801;SDS011;4940;50.900;4.672;2022-08-21T06:29:44;3.63;;;1.60;;
9801;SDS011;4940;50.900;4.672;2022-08-21T06:32:12;2.13;;;1.40;;
9801;SDS011;4940;50.900;4.672;2022-08-21T06:34:39;4.53;;;1.58;;
9801;SDS011;4940;50.900;4.672;2022-08-21T06:37:07;4.60;;;1.65;;
9801;SDS011;4940;50.900;4.672;2022-08-21T06:39:35;4.38;;;1.50;;
9801;SDS011;4940;50.900;4.672;2022-08-21T06:42:02;6.05;;;1.63;;
9801;SDS011;4940;50.900;4.672;2022-08-21T06:44:30;5.03;;;1.70;;
9801;SDS011;4940;50.900;4.672;2022-08-21T06:46:59;4.07;;;1.52;;
9801;SDS011;4940;50.900;4.672;2022-08-21T06:49:26;4.53;;;1.73;;
9801;SDS011;4940;50.900;4.672;2022-08-21T06:51:53;2.67;;;1.35;;
9801;SDS011;4940;50.900;4.672;2022-08-21T06:54:20;4.15;;;1.65;;
9801;SDS011;4940;50.900;4.672;2022-08-21T06:56:48;5.05;;;1.80;;
9801;SDS011;4940;50.900;4.672;2022-08-21T06:59:15;2.22;;;1.55;;
9801;SDS011;4940;50.900;4.672;2022-08-21T07:01:42;3.53;;;1.80;;
9801;SDS011;4940;50.900;4.672;2022-08-21T07:04:11;3.30;;;1.50;;
9801;SDS011;4940;50.900;4.672;2022-08-21T07:06:39;4.88;;;1.90;;
9801;SDS011;4940;50.900;4.672;2022-08-21T07:09:06;2.95;;;1.50;;
9801;SDS011;4940;50.900;4.672;2022-08-21T07:11:35;2.42;;;1.17;;
9801;SDS011;4940;50.900;4.672;2022-08-21T07:14:02;5.57;;;1.52;;
9801;SDS011;4940;50.900;4.672;2022-08-21T07:16:30;5.43;;;1.85;;
9801;SDS011;4940;50.900;4.672;2022-08-21T07:18:57;2.40;;;1.27;;
9801;SDS011;4940;50.900;4.672;2022-08-21T07:21:26;5.63;;;1.75;;
9801;SDS011;4940;50.900;4.672;2022-08-21T07:23:53;5.10;;;1.50;;
9801;SDS011;4940;50.900;4.672;2022-08-21T07:26:21;2.28;;;1.27;;
9801;SDS011;4940;50.900;4.672;2022-08-21T07:28:50;3.58;;;1.50;;
9801;SDS011;4940;50.900;4.672;2022-08-21T07:31:22;3.42;;;1.75;;
9801;SDS011;4940;50.900;4.672;2022-08-21T07:33:50;5.28;;;1.40;;
9801;SDS011;4940;50.900;4.672;2022-08-21T07:36:17;3.50;;;1.33;;
9801;SDS011;4940;50.900;4.672;2022-08-21T07:38:46;3.40;;;1.40;;
9801;SDS011;4940;50.900;4.672;2022-08-21T07:41:14;5.88;;;1.30;;
9801;SDS011;4940;50.900;4.672;2022-08-21T07:43:44;3.78;;;1.27;;
9801;SDS011;4940;50.900;4.672;2022-08-21T07:46:12;4.28;;;1.30;;
9801;SDS011;4940;50.900;4.672;2022-08-21T07:48:40;2.58;;;1.30;;
9801;SDS011;4940;50.900;4.672;2022-08-21T07:51:08;7.15;;;1.30;;
9801;SDS011;4940;50.900;4.672;2022-08-21T07:53:37;4.65;;;1.20;;
9801;SDS011;4940;50.900;4.672;2022-08-21T07:56:06;4.55;;;1.10;;
9801;SDS011;4940;50.900;4.672;2022-08-21T07:58:36;3.10;;;0.90;;
9801;SDS011;4940;50.900;4.672;2022-08-21T08:01:04;4.57;;;1.40;;
9801;SDS011;4940;50.900;4.672;2022-08-21T08:03:32;2.22;;;1.30;;
9801;SDS011;4940;50.900;4.672;2022-08-21T08:05:59;3.60;;;1.33;;
9801;SDS011;4940;50.900;4.672;2022-08-21T08:08:29;3.53;;;1.20;;
9801;SDS011;4940;50.900;4.672;2022-08-21T08:10:57;4.07;;;1.95;;
9801;SDS011;4940;50.900;4.672;2022-08-21T08:13:26;2.22;;;1.08;;
9801;SDS011;4940;50.900;4.672;2022-08-21T08:15:54;3.28;;;1.40;;
9801;SDS011;4940;50.900;4.672;2022-08-21T08:18:21;5.18;;;1.50;;
9801;SDS011;4940;50.900;4.672;2022-08-21T08:20:48;4.18;;;1.55;;
9801;SDS011;4940;50.900;4.672;2022-08-21T08:23:16;3.88;;;1.30;;
9801;SDS011;4940;50.900;4.672;2022-08-21T08:25:43;4.05;;;1.50;;
9801;SDS011;4940;50.900;4.672;2022-08-21T08:28:10;2.90;;;1.35;;
9801;SDS011;4940;50.900;4.672;2022-08-21T08:30:39;2.22;;;1.40;;
9801;SDS011;4940;50.900;4.672;2022-08-21T08:33:07;3.28;;;1.50;;
9801;SDS011;4940;50.900;4.672;2022-08-21T08:35:35;3.50;;;1.23;;
9801;SDS011;4940;50.900;4.672;2022-08-21T08:38:02;1.73;;;1.40;;
9801;SDS011;4940;50.900;4.672;2022-08-21T08:40:31;2.17;;;1.38;;
9801;SDS011;4940;50.900;4.672;2022-08-21T08:43:05;4.95;;;1.60;;
9801;SDS011;4940;50.900;4.672;2022-08-21T08:45:34;4.38;;;1.50;;
9801;SDS011;4940;50.900;4.672;2022-08-21T08:48:08;3.20;;;2.03;;
9801;SDS011;4940;50.900;4.672;2022-08-21T08:50:40;5.65;;;1.48;;
9801;SDS011;4940;50.900;4.672;2022-08-21T08:53:10;3.53;;;1.60;;
9801;SDS011;4940;50.900;4.672;2022-08-21T08:55:44;4.13;;;1.58;;
9801;SDS011;4940;50.900;4.672;2022-08-21T08:58:13;4.13;;;1.92;;
9801;SDS011;4940;50.900;4.672;2022-08-21T09:00:44;3.70;;;1.60;;
9801;SDS011;4940;50.900;4.672;2022-08-21T09:03:16;2.03;;;1.48;;
9801;SDS011;4940;50.900;4.672;2022-08-21T09:05:46;2.58;;;1.50;;
9801;SDS011;4940;50.900;4.672;2022-08-21T09:08:20;3.53;;;1.35;;
9801;SDS011;4940;50.900;4.672;2022-08-21T09:10:59;3.78;;;1.95;;
9801;SDS011;4940;50.900;4.672;2022-08-21T09:13:32;3.95;;;1.70;;
9801;SDS011;4940;50.900;4.672;2022-08-21T09:16:12;3.90;;;1.67;;
9801;SDS011;4940;50.900;4.672;2022-08-21T09:19:00;3.85;;;1.60;;
9801;SDS011;4940;50.900;4.672;2022-08-21T09:21:35;3.42;;;1.80;;
9801;SDS011;4940;50.900;4.672;2022-08-21T09:24:15;5.78;;;2.05;;
9801;SDS011;4940;50.900;4.672;2022-08-21T09:26:50;2.63;;;1.58;;
9801;SDS011;4940;50.900;4.672;2022-08-21T09:29:24;2.28;;;1.58;;
9801;SDS011;4940;50.900;4.672;2022-08-21T09:31:54;3.00;;;1.80;;
9801;SDS011;4940;50.900;4.672;2022-08-21T09:34:26;2.90;;;1.58;;
9801;SDS011;4940;50.900;4.672;2022-08-21T09:36:55;3.97;;;1.83;;
9801;SDS011;4940;50.900;4.672;2022-08-21T09:39:24;7.07;;;1.83;;
9801;SDS011;4940;50.900;4.672;2022-08-21T09:41:56;2.90;;;2.00;;
9801;SDS011;4940;50.900;4.672;2022-08-21T09:44:25;6.03;;;1.80;;
9801;SDS011;4940;50.900;4.672;2022-08-21T09:46:54;3.88;;;2.03;;
9801;SDS011;4940;50.900;4.672;2022-08-21T09:49:30;5.63;;;1.77;;
9801;SDS011;4940;50.900;4.672;2022-08-21T09:51:59;3.50;;;1.80;;
9801;SDS011;4940;50.900;4.672;2022-08-21T09:54:29;4.38;;;2.00;;
9801;SDS011;4940;50.900;4.672;2022-08-21T09:56:59;2.28;;;1.88;;
9801;SDS011;4940;50.900;4.672;2022-08-21T09:59:49;3.80;;;2.13;;
9801;SDS011;4940;50.900;4.672;2022-08-21T10:02:21;2.92;;;1.85;;
9801;SDS011;4940;50.900;4.672;2022-08-21T10:04:53;2.63;;;1.73;;
9801;SDS011;4940;50.900;4.672;2022-08-21T10:07:24;5.90;;;2.00;;
9801;SDS011;4940;50.900;4.672;2022-08-21T10:10:00;2.67;;;1.80;;
9801;SDS011;4940;50.900;4.672;2022-08-21T10:12:33;3.85;;;1.55;;
9801;SDS011;4940;50.900;4.672;2022-08-21T10:15:12;3.45;;;2.08;;
9801;SDS011;4940;50.900;4.672;2022-08-21T10:17:48;6.75;;;1.83;;
9801;SDS011;4940;50.900;4.672;2022-08-21T10:20:28;4.82;;;2.15;;
9801;SDS011;4940;50.900;4.672;2022-08-21T10:23:03;6.13;;;1.80;;
9801;SDS011;4940;50.900;4.672;2022-08-21T10:25:40;3.53;;;1.90;;
9801;SDS011;4940;50.900;4.672;2022-08-21T10:28:17;4.50;;;1.70;;
9801;SDS011;4940;50.900;4.672;2022-08-21T10:30:56;4.07;;;1.50;;
9801;SDS011;4940;50.900;4.672;2022-08-21T10:33:32;4.88;;;1.70;;
9801;SDS011;4940;50.900;4.672;2022-08-21T10:36:12;4.90;;;2.40;;
9801;SDS011;4940;50.900;4.672;2022-08-21T10:38:55;5.88;;;2.08;;
9801;SDS011;4940;50.900;4.672;2022-08-21T10:41:34;7.40;;;1.60;;
9801;SDS011;4940;50.900;4.672;2022-08-21T10:44:16;6.70;;;2.20;;
9801;SDS011;4940;50.900;4.672;2022-08-21T10:46:54;5.90;;;2.17;;
9801;SDS011;4940;50.900;4.672;2022-08-21T10:49:29;5.25;;;2.20;;
9801;SDS011;4940;50.900;4.672;2022-08-21T10:52:13;8.13;;;1.75;;
9801;SDS011;4940;50.900;4.672;2022-08-21T10:54:57;5.90;;;2.28;;
9801;SDS011;4940;50.900;4.672;2022-08-21T10:57:30;5.53;;;2.08;;
9801;SDS011;4940;50.900;4.672;2022-08-21T11:00:05;3.45;;;1.88;;
9801;SDS011;4940;50.900;4.672;2022-08-21T11:02:37;8.63;;;4.32;;
9801;SDS011;4940;50.900;4.672;2022-08-21T11:05:10;5.65;;;2.88;;
9801;SDS011;4940;50.900;4.672;2022-08-21T11:07:45;4.75;;;2.20;;
9801;SDS011;4940;50.900;4.672;2022-08-21T11:10:18;6.78;;;2.17;;
9801;SDS011;4940;50.900;4.672;2022-08-21T11:12:50;5.40;;;1.83;;
9801;SDS011;4940;50.900;4.672;2022-08-21T11:15:24;2.67;;;1.85;;
9801;SDS011;4940;50.900;4.672;2022-08-21T11:18:01;4.38;;;1.60;;
9801;SDS011;4940;50.900;4.672;2022-08-21T11:20:43;4.90;;;2.17;;
9801;SDS011;4940;50.900;4.672;2022-08-21T11:23:18;6.80;;;2.08;;
9801;SDS011;4940;50.900;4.672;2022-08-21T11:25:52;3.97;;;2.05;;
9801;SDS011;4940;50.900;4.672;2022-08-21T11:28:24;4.25;;;2.10;;
9801;SDS011;4940;50.900;4.672;2022-08-21T11:30:58;4.68;;;2.00;;
9801;SDS011;4940;50.900;4.672;2022-08-21T11:33:38;9.13;;;2.42;;
9801;SDS011;4940;50.900;4.672;2022-08-21T11:36:19;6.85;;;2.38;;
9801;SDS011;4940;50.900;4.672;2022-08-21T11:39:02;4.43;;;2.25;;
9801;SDS011;4940;50.900;4.672;2022-08-21T11:41:43;4.93;;;1.85;;
9801;SDS011;4940;50.900;4.672;2022-08-21T11:44:21;4.32;;;2.33;;
9801;SDS011;4940;50.900;4.672;2022-08-21T11:46:59;6.22;;;2.22;;
9801;SDS011;4940;50.900;4.672;2022-08-21T11:52:20;4.22;;;1.88;;
9801;SDS011;4940;50.900;4.672;2022-08-21T11:54:52;4.68;;;2.05;;
9801;SDS011;4940;50.900;4.672;2022-08-21T11:57:25;3.55;;;1.90;;
9801;SDS011;4940;50.900;4.672;2022-08-21T11:59:57;6.32;;;1.88;;
9801;SDS011;4940;50.900;4.672;2022-08-21T12:02:29;5.80;;;1.85;;
9801;SDS011;4940;50.900;4.672;2022-08-21T12:05:02;5.03;;;1.80;;
9801;SDS011;4940;50.900;4.672;2022-08-21T12:07:33;4.18;;;1.95;;
9801;SDS011;4940;50.900;4.672;2022-08-21T12:10:04;3.63;;;1.88;;
9801;SDS011;4940;50.900;4.672;2022-08-21T12:12:35;3.70;;;1.67;;
9801;SDS011;4940;50.900;4.672;2022-08-21T12:15:06;4.25;;;1.77;;
9801;SDS011;4940;50.900;4.672;2022-08-21T12:17:52;4.47;;;2.20;;
9801;SDS011;4940;50.900;4.672;2022-08-21T12:20:36;5.22;;;1.83;;
9801;SDS011;4940;50.900;4.672;2022-08-21T12:23:16;5.55;;;2.00;;
9801;SDS011;4940;50.900;4.672;2022-08-21T12:26:00;2.03;;;1.70;;
9801;SDS011;4940;50.900;4.672;2022-08-21T12:28:29;4.63;;;1.85;;
9801;SDS011;4940;50.900;4.672;2022-08-21T12:30:57;4.72;;;1.80;;
9801;SDS011;4940;50.900;4.672;2022-08-21T12:33:26;2.42;;;1.83;;
9801;SDS011;4940;50.900;4.672;2022-08-21T12:36:01;9.50;;;1.98;;
9801;SDS011;4940;50.900;4.672;2022-08-21T12:38:32;4.47;;;1.67;;
9801;SDS011;4940;50.900;4.672;2022-08-21T12:41:12;5.68;;;1.77;;
9801;SDS011;4940;50.900;4.672;2022-08-21T12:43:46;2.58;;;1.48;;
9801;SDS011;4940;50.900;4.672;2022-08-21T12:46:17;6.18;;;1.90;;
9801;SDS011;4940;50.900;4.672;2022-08-21T12:48:47;4.65;;;2.10;;
9801;SDS011;4940;50.900;4.672;2022-08-21T12:51:18;2.30;;;1.58;;
9801;SDS011;4940;50.900;4.672;2022-08-21T12:53:51;5.70;;;1.50;;
9801;SDS011;4940;50.900;4.672;2022-08-21T12:56:22;3.55;;;2.13;;
9801;SDS011;4940;50.900;4.672;2022-08-21T12:58:54;3.65;;;1.58;;
9801;SDS011;4940;50.900;4.672;2022-08-21T13:01:25;5.72;;;1.67;;
9801;SDS011;4940;50.900;4.672;2022-08-21T13:03:57;4.53;;;1.50;;
9801;SDS011;4940;50.900;4.672;2022-08-21T13:06:27;4.03;;;1.58;;
9801;SDS011;4940;50.900;4.672;2022-08-21T13:08:59;3.90;;;1.80;;
9801;SDS011;4940;50.900;4.672;2022-08-21T13:11:33;4.70;;;1.73;;
9801;SDS011;4940;50.900;4.672;2022-08-21T13:14:00;4.35;;;1.80;;
9801;SDS011;4940;50.900;4.672;2022-08-21T13:16:29;4.82;;;1.40;;
9801;SDS011;4940;50.900;4.672;2022-08-21T13:18:59;4.53;;;1.50;;
9801;SDS011;4940;50.900;4.672;2022-08-21T13:21:30;3.38;;;1.98;;
9801;SDS011;4940;50.900;4.672;2022-08-21T13:24:11;8.00;;;1.98;;
9801;SDS011;4940;50.900;4.672;2022-08-21T13:26:43;3.53;;;1.60;;
9801;SDS011;4940;50.900;4.672;2022-08-21T13:29:11;5.13;;;1.85;;
9801;SDS011;4940;50.900;4.672;2022-08-21T13:31:40;3.88;;;1.75;;
9801;SDS011;4940;50.900;4.672;2022-08-21T13:34:12;3.72;;;1.55;;
9801;SDS011;4940;50.900;4.672;2022-08-21T13:36:42;5.65;;;1.58;;
9801;SDS011;4940;50.900;4.672;2022-08-21T13:39:11;4.70;;;1.80;;
9801;SDS011;4940;50.900;4.672;2022-08-21T13:41:44;4.00;;;1.80;;
9801;SDS011;4940;50.900;4.672;2022-08-21T13:44:15;4.75;;;2.05;;
9801;SDS011;4940;50.900;4.672;2022-08-21T13:46:45;4.35;;;1.63;;
9801;SDS011;4940;50.900;4.672;2022-08-21T13:49:14;2.72;;;1.45;;
9801;SDS011;4940;50.900;4.672;2022-08-21T13:51:42;5.15;;;1.33;;
9801;SDS011;4940;50.900;4.672;2022-08-21T13:54:15;3.35;;;1.77;;
9801;SDS011;4940;50.900;4.672;2022-08-21T13:56:49;4.45;;;1.42;;
9801;SDS011;4940;50.900;4.672;2022-08-21T13:59:24;4.15;;;1.98;;
9801;SDS011;4940;50.900;4.672;2022-08-21T14:01:53;6.93;;;2.15;;
9801;SDS011;4940;50.900;4.672;2022-08-21T14:04:25;3.47;;;1.35;;
9801;SDS011;4940;50.900;4.672;2022-08-21T14:06:57;4.70;;;1.80;;
9801;SDS011;4940;50.900;4.672;2022-08-21T14:09:26;6.45;;;1.77;;
9801;SDS011;4940;50.900;4.672;2022-08-21T14:11:58;3.90;;;1.70;;
9801;SDS011;4940;50.900;4.672;2022-08-21T14:14:29;4.57;;;1.60;;
9801;SDS011;4940;50.900;4.672;2022-08-21T14:16:59;6.70;;;1.80;;
9801;SDS011;4940;50.900;4.672;2022-08-21T14:19:35;4.93;;;1.75;;
9801;SDS011;4940;50.900;4.672;2022-08-21T14:24:50;4.90;;;1.50;;
9801;SDS011;4940;50.900;4.672;2022-08-21T14:27:28;6.68;;;1.70;;
9801;SDS011;4940;50.900;4.672;2022-08-21T14:29:59;5.10;;;1.88;;
9801;SDS011;4940;50.900;4.672;2022-08-21T14:32:35;2.58;;;1.65;;
9801;SDS011;4940;50.900;4.672;2022-08-21T14:35:04;2.97;;;1.60;;
9801;SDS011;4940;50.900;4.672;2022-08-21T14:37:32;4.88;;;1.58;;
9801;SDS011;4940;50.900;4.672;2022-08-21T14:40:00;6.95;;;1.70;;
9801;SDS011;4940;50.900;4.672;2022-08-21T14:42:29;4.55;;;1.92;;
9801;SDS011;4940;50.900;4.672;2022-08-21T14:44:57;2.75;;;1.80;;
9801;SDS011;4940;50.900;4.672;2022-08-21T14:47:27;4.30;;;1.70;;
9801;SDS011;4940;50.900;4.672;2022-08-21T14:49:55;4.35;;;1.50;;
9801;SDS011;4940;50.900;4.672;2022-08-21T14:52:22;4.25;;;1.70;;
9801;SDS011;4940;50.900;4.672;2022-08-21T14:54:49;4.43;;;1.88;;
9801;SDS011;4940;50.900;4.672;2022-08-21T14:57:17;2.65;;;1.85;;
9801;SDS011;4940;50.900;4.672;2022-08-21T14:59:45;4.25;;;1.88;;
9801;SDS011;4940;50.900;4.672;2022-08-21T15:02:13;5.63;;;1.77;;
9801;SDS011;4940;50.900;4.672;2022-08-21T15:04:40;5.65;;;2.00;;
9801;SDS011;4940;50.900;4.672;2022-08-21T15:07:08;7.10;;;1.90;;
9801;SDS011;4940;50.900;4.672;2022-08-21T15:09:35;3.90;;;1.65;;
9801;SDS011;4940;50.900;4.672;2022-08-21T15:12:03;6.07;;;1.60;;
9801;SDS011;4940;50.900;4.672;2022-08-21T15:14:33;4.60;;;1.73;;
9801;SDS011;4940;50.900;4.672;2022-08-21T15:17:03;4.20;;;1.30;;
9801;SDS011;4940;50.900;4.672;2022-08-21T15:19:32;3.47;;;1.63;;
9801;SDS011;4940;50.900;4.672;2022-08-21T15:21:59;8.60;;;2.17;;
9801;SDS011;4940;50.900;4.672;2022-08-21T15:24:27;3.30;;;1.60;;
9801;SDS011;4940;50.900;4.672;2022-08-21T15:26:54;5.82;;;1.70;;
9801;SDS011;4940;50.900;4.672;2022-08-21T15:29:22;4.32;;;1.60;;
9801;SDS011;4940;50.900;4.672;2022-08-21T15:31:50;2.40;;;1.55;;
9801;SDS011;4940;50.900;4.672;2022-08-21T15:34:21;4.47;;;1.60;;
9801;SDS011;4940;50.900;4.672;2022-08-21T15:36:49;3.53;;;1.52;;
9801;SDS011;4940;50.900;4.672;2022-08-21T15:39:16;1.52;;;1.30;;